logo
Rechercher aéroport 
image banner adimage banner adimage banner ad
image banner ad

EI0041 - Black Sod Mayo

Situé à Doohoma Head, Ireland

ICAO - , IATA -

Données fournies par Airmate  

Information générale

Coordonnées: N54°5'55" W10°3'41"
Élévation : feet MSL.
Variation magnétique : -3° East
Voir autres Aéroports à County Mayo

Données opérationnelles

Special qualification required
Heure actuelle UTC:
Heure actuelle locale:
Météo à : - ( 0 km )
METAR: KS71 201245Z AUTO 00000KT 10SM 03/03 A3003
Voir NOTAMs / SUP AIP / TFR affectant cet aéroport [VIEW]
Fréquences de communication: [VIEW]

Pistes:

Coordonnées de l'aéroport

Adresse: Doohoma Head Ireland

Vue satellite de EI0041